Time;durP1;ratioP1;P1;durP2;ratioP2;P2;SDS_P1;SDS_P2;PMS_P1;PMS_P2;Temp;Humidity;BMP_temperature;BMP_pressure;BME280_temperature;BME280_humidity;BME280_pressure;Samples;Min_cycle;Max_cycle;Signal;HPM_P1;HPM_P2
2022/06/06 00:04:27;;;;;;;7.20;6.00;;;;;;;17.47;87.40;96417.44;10328369;28;20226;-57
2022/06/06 00:09:27;;;;;;;6.22;5.68;;;;;;;17.63;87.60;96402.94;10329059;28;20178;-58
2022/06/06 00:14:27;;;;;;;6.95;6.25;;;;;;;17.33;89.97;96410.53;10327649;28;20234;-57
2022/06/06 00:19:28;;;;;;;6.07;5.47;;;;;;;17.58;91.80;96409.88;10327824;28;20251;-57
2022/06/06 00:24:28;;;;;;;6.93;5.72;;;;;;;17.85;93.67;96415.91;10327406;28;20245;-53
2022/06/06 00:29:33;;;;;;;6.53;5.38;;;;;;;18.05;97.49;96418.50;10327593;28;20234;-56
2022/06/06 00:34:49;;;;;;;6.97;6.28;;;;;;;18.10;100.00;96431.13;10326910;28;20210;-54
2022/06/06 00:39:50;;;;;;;10.60;5.68;;;;;;;18.06;100.00;96424.63;10327484;28;20205;-58
2022/06/06 00:45:20;;;;;;;8.25;5.80;;;;;;;17.98;100.00;96418.53;10326592;28;20708;-60
2022/06/06 00:50:25;;;;;;;7.80;6.32;;;;;;;17.95;100.00;96418.94;10327393;28;20330;-57
2022/06/06 00:55:30;;;;;;;6.82;6.13;;;;;;;17.97;100.00;96429.34;10326431;28;20214;-57
2022/06/06 01:00:31;;;;;;;6.88;5.97;;;;;;;18.06;100.00;96436.03;10325035;28;20198;-57
2022/06/06 01:05:31;;;;;;;9.32;5.97;;;;;;;17.99;100.00;96438.72;10323919;28;20732;-57
2022/06/06 01:10:32;;;;;;;6.32;5.47;;;;;;;17.89;100.00;96435.69;10325129;28;20185;-56
2022/06/06 01:16:06;;;;;;;7.40;4.88;;;;;;;17.92;100.00;96434.47;10326026;28;20240;-54
2022/06/06 01:21:30;;;;;;;6.40;4.88;;;;;;;17.83;100.00;96433.84;10325736;28;20287;-56
2022/06/06 01:26:41;;;;;;;5.25;4.10;;;;;;;17.81;100.00;96452.59;10324492;28;20249;-58
2022/06/06 01:31:48;;;;;;;5.53;4.47;;;;;;;17.28;100.00;96468.59;10324792;28;20189;-56
2022/06/06 01:36:50;;;;;;;5.53;4.50;;;;;;;16.95;100.00;96472.06;10325184;28;20298;-57
2022/06/06 01:42:01;;;;;;;5.72;5.00;;;;;;;16.80;100.00;96466.09;10326348;28;20673;-60
2022/06/06 01:47:03;;;;;;;6.10;4.97;;;;;;;16.53;100.00;96463.44;10325635;28;20225;-59
2022/06/06 01:52:08;;;;;;;6.13;4.80;;;;;;;16.43;100.00;96466.44;10324597;28;20221;-59
2022/06/06 01:57:12;;;;;;;5.75;4.68;;;;;;;16.37;100.00;96470.72;10325497;28;20235;-59
2022/06/06 02:02:12;;;;;;;7.07;5.25;;;;;;;16.27;100.00;96472.09;10325447;28;20218;-59
2022/06/06 02:07:12;;;;;;;4.80;4.40;;;;;;;16.17;100.00;96481.22;10325238;28;20776;-60
2022/06/06 02:12:13;;;;;;;7.38;4.00;;;;;;;16.15;100.00;96490.34;10325243;28;20758;-61
2022/06/06 02:17:13;;;;;;;5.43;4.03;;;;;;;16.02;100.00;96486.66;10328820;28;20317;-60
2022/06/06 02:22:14;;;;;;;6.65;4.40;;;;;;;15.91;100.00;96486.38;10332706;28;20244;-60
2022/06/06 02:27:14;;;;;;;7.32;4.05;;;;;;;15.83;100.00;96490.84;10331882;28;20226;-59
2022/06/06 02:32:14;;;;;;;7.07;3.92;;;;;;;15.74;100.00;96493.78;10332328;28;20196;-58
2022/06/06 02:37:15;;;;;;;7.82;4.22;;;;;;;15.66;100.00;96487.63;10331520;28;20711;-59
2022/06/06 02:42:15;;;;;;;5.47;4.18;;;;;;;15.55;100.00;96490.00;10331840;28;20198;-56
2022/06/06 02:47:16;;;;;;;5.47;4.57;;;;;;;15.46;100.00;96487.50;10331514;28;20248;-58
2022/06/06 02:52:17;;;;;;;7.03;4.60;;;;;;;15.47;100.00;96494.44;10331390;28;20209;-58
2022/06/06 02:57:17;;;;;;;8.27;5.30;;;;;;;15.39;100.00;96509.59;10331401;28;20186;-58
2022/06/06 03:02:17;;;;;;;5.82;4.47;;;;;;;15.39;100.00;96501.66;10329388;28;20294;-56
2022/06/06 03:07:45;;;;;;;7.90;4.43;;;;;;;15.39;100.00;96510.44;10330355;28;20275;-58
2022/06/06 03:13:15;;;;;;;7.47;4.20;;;;;;;15.44;100.00;96512.50;10329670;28;20786;-59
2022/06/06 03:24:05;;;;;;;5.15;4.30;;;;;;;15.38;100.00;96521.16;10330045;28;20225;-57
2022/06/06 03:29:15;;;;;;;4.60;4.18;;;;;;;15.40;100.00;96512.03;10327487;28;20640;-53
2022/06/06 03:34:52;;;;;;;10.15;4.03;;;;;;;15.37;100.00;96519.53;10329435;28;20210;-54
2022/06/06 03:40:05;;;;;;;9.43;4.25;;;;;;;15.34;100.00;96529.47;10328455;28;20554;-57
2022/06/06 03:45:11;;;;;;;4.38;3.95;;;;;;;15.37;100.00;96525.63;10329397;28;20262;-51
2022/06/06 03:50:26;;;;;;;6.10;4.28;;;;;;;15.29;100.00;96523.94;10328853;28;20212;-53
2022/06/06 03:55:41;;;;;;;5.25;4.18;;;;;;;15.30;100.00;96522.13;10328957;28;20213;-55
2022/06/06 04:00:42;;;;;;;6.25;4.70;;;;;;;15.28;100.00;96532.88;10326995;28;20240;-55
2022/06/06 04:05:42;;;;;;;7.57;4.88;;;;;;;15.29;100.00;96523.13;10328746;28;20692;-54
2022/06/06 04:10:52;;;;;;;7.03;4.72;;;;;;;15.35;100.00;96532.91;10328537;28;20193;-53
2022/06/06 04:16:03;;;;;;;6.60;4.20;;;;;;;15.41;100.00;96542.72;10326846;28;20269;-52
2022/06/06 04:21:19;;;;;;;5.07;3.80;;;;;;;15.42;100.00;96538.25;10328224;28;20217;-56
2022/06/06 04:26:27;;;;;;;8.07;3.88;;;;;;;15.55;100.00;96548.09;10327865;28;20229;-55
2022/06/06 04:31:36;;;;;;;4.75;3.97;;;;;;;15.61;100.00;96553.41;10326704;28;20661;-55
2022/06/06 04:36:51;;;;;;;4.00;3.60;;;;;;;15.67;100.00;96562.41;10327395;28;20206;-57
2022/06/06 04:42:09;;;;;;;4.35;3.80;;;;;;;15.59;100.00;96562.53;10326341;28;20201;-50
2022/06/06 04:47:15;;;;;;;5.07;3.65;;;;;;;15.60;100.00;96553.63;10327431;28;20226;-53
2022/06/06 04:52:16;;;;;;;4.03;3.08;;;;;;;15.68;100.00;96559.56;10326245;28;20337;-58
2022/06/06 04:57:17;;;;;;;4.10;3.33;;;;;;;15.53;100.00;96566.78;10325550;28;20249;-57
2022/06/06 05:02:19;;;;;;;5.60;3.30;;;;;;;15.52;100.00;96567.78;10327262;28;20664;-55
2022/06/06 05:07:33;;;;;;;4.78;3.22;;;;;;;15.46;100.00;96569.34;10326392;28;20225;-57
2022/06/06 05:13:01;;;;;;;5.35;3.58;;;;;;;15.52;100.00;96580.97;10326519;28;20728;-57
2022/06/06 05:18:42;;;;;;;4.22;3.63;;;;;;;15.29;100.00;96582.00;10357566;23;20248;-62
2022/06/06 05:24:00;;;;;;;3.00;2.80;;;;;;;15.52;100.00;96584.41;10316513;28;20233;-61
2022/06/06 05:29:28;;;;;;;4.55;3.70;;;;;;;15.71;100.00;96592.69;10328065;28;20214;-61
2022/06/06 05:34:34;;;;;;;3.28;2.75;;;;;;;16.18;100.00;96593.03;10328777;28;20214;-59
2022/06/06 05:39:42;;;;;;;4.03;2.80;;;;;;;16.03;100.00;96582.56;10326987;28;20735;-60
2022/06/06 05:44:52;;;;;;;2.58;2.38;;;;;;;16.10;100.00;96588.72;10329173;28;20264;-61
2022/06/06 05:50:22;;;;;;;2.13;2.03;;;;;;;16.60;100.00;96588.56;10344614;28;20276;-61
2022/06/06 05:56:00;;;;;;;4.32;1.88;;;;;;;16.83;100.00;96587.41;10352103;28;20213;-61
2022/06/06 06:01:25;;;;;;;2.20;2.00;;;;;;;17.24;100.00;96592.63;10336851;28;20683;-60
2022/06/06 06:06:51;;;;;;;2.00;1.90;;;;;;;17.19;100.00;96589.75;10336764;28;20233;-59
2022/06/06 06:12:18;;;;;;;2.75;1.70;;;;;;;17.28;100.00;96599.13;10323092;28;20682;-60
2022/06/06 06:17:22;;;;;;;2.63;1.90;;;;;;;17.32;100.00;96599.56;10350951;28;20238;-59
2022/06/06 06:22:24;;;;;;;2.35;1.70;;;;;;;17.42;100.00;96607.09;10351500;28;20189;-61
2022/06/06 06:27:26;;;;;;;3.60;1.90;;;;;;;17.71;100.00;96605.09;10335278;28;20731;-62
2022/06/06 06:32:51;;;;;;;4.10;1.77;;;;;;;18.57;100.00;96600.66;10350617;28;20190;-58
2022/06/06 06:38:10;;;;;;;1.83;1.50;;;;;;;17.01;100.00;96611.50;10334918;28;20221;-61
2022/06/06 06:43:18;;;;;;;4.40;1.88;;;;;;;17.43;100.00;96609.56;10350415;28;20200;-58
2022/06/06 06:48:26;;;;;;;2.22;2.10;;;;;;;17.07;100.00;96615.19;10328630;28;20241;-59
2022/06/06 06:53:35;;;;;;;2.53;1.92;;;;;;;17.54;100.00;96613.44;10335187;28;20190;-58
2022/06/06 06:58:55;;;;;;;6.20;1.70;;;;;;;18.79;100.00;96611.78;10320003;28;20305;-56
2022/06/06 07:09:49;;;;;;;1.65;1.55;;;;;;;19.98;96.71;96598.78;10333048;28;20210;-58
2022/06/06 07:15:10;;;;;;;1.70;1.60;;;;;;;19.98;94.00;96590.78;10333795;28;20676;-58
2022/06/06 07:20:13;;;;;;;3.85;1.83;;;;;;;19.26;91.90;96593.78;10301374;28;20252;-57
2022/06/06 07:25:14;;;;;;;2.10;1.70;;;;;;;19.59;95.33;96590.91;10293178;28;20309;-59
2022/06/06 07:30:14;;;;;;;3.63;1.90;;;;;;;20.34;88.10;96569.75;10293302;28;20220;-56
2022/06/06 07:35:21;;;;;;;5.45;1.73;;;;;;;21.46;86.06;96577.31;10292497;28;20194;-57
2022/06/06 07:40:49;;;;;;;2.08;1.88;;;;;;;19.67;87.02;96592.47;10302392;28;20297;-59
2022/06/06 07:46:29;;;;;;;4.85;1.90;;;;;;;20.04;86.24;96571.31;10310322;28;20225;-57
2022/06/06 07:52:01;;;;;;;1.75;1.45;;;;;;;22.50;76.71;96524.44;10332364;28;20573;-60
2022/06/06 07:57:16;;;;;;;4.57;1.90;;;;;;;21.47;76.22;96538.97;10330122;28;20229;-61
2022/06/06 08:02:38;;;;;;;3.15;1.60;;;;;;;20.19;83.71;96583.44;10332497;28;20569;-62
2022/06/06 08:07:59;;;;;;;3.05;1.70;;;;;;;21.63;79.43;96553.47;10330580;28;20268;-58
2022/06/06 08:13:26;;;;;;;1.73;1.52;;;;;;;20.82;76.88;96539.72;10331494;28;20201;-56
2022/06/06 08:18:58;;;;;;;2.10;1.90;;;;;;;20.49;81.01;96562.25;10328099;28;20720;-57
2022/06/06 08:24:01;;;;;;;2.10;1.85;;;;;;;19.84;81.04;96557.41;10330102;28;20226;-61
2022/06/06 08:29:05;;;;;;;2.55;1.88;;;;;;;21.36;76.69;96531.75;10330984;28;20641;-57
2022/06/06 08:34:05;;;;;;;1.65;1.42;;;;;;;22.49;70.63;96478.22;10330461;28;20273;-62
2022/06/06 08:39:33;;;;;;;1.45;1.35;;;;;;;24.75;63.90;96409.19;10330665;28;20309;-56
2022/06/06 08:44:52;;;;;;;1.50;1.40;;;;;;;23.09;67.01;96466.22;10329354;28;20228;-62
2022/06/06 08:55:33;;;;;;;1.85;1.35;;;;;;;23.09;68.97;96494.78;10330125;28;20193;-55
2022/06/06 09:00:38;;;;;;;1.77;1.42;;;;;;;22.57;67.46;96467.16;10328728;28;20759;-62
2022/06/06 09:05:41;;;;;;;3.40;1.83;;;;;;;23.44;67.27;96477.69;10329838;28;20226;-59
2022/06/06 09:11:19;;;;;;;1.60;1.15;;;;;;;24.46;64.01;96440.78;10329993;28;20237;-55
2022/06/06 09:16:26;;;;;;;1.40;1.30;;;;;;;24.58;61.24;96405.84;10329381;28;20328;-60
2022/06/06 09:21:50;;;;;;;1.52;1.40;;;;;;;23.84;64.80;96466.81;10328398;28;20226;-57
2022/06/06 09:27:06;;;;;;;2.70;1.67;;;;;;;24.87;64.46;96489.44;10332128;28;20221;-60
2022/06/06 09:32:18;;;;;;;2.72;1.38;;;;;;;25.47;58.33;96379.44;10316154;28;20269;-58
2022/06/06 09:37:59;;;;;;;2.63;1.60;;;;;;;24.87;59.79;96403.69;10303407;28;20218;-58
2022/06/06 09:43:32;;;;;;;1.77;1.30;;;;;;;22.48;66.14;96483.78;10296345;28;20195;-55
2022/06/06 09:48:51;;;;;;;2.03;1.58;;;;;;;21.76;68.52;96516.97;10294910;28;20751;-55
2022/06/06 09:59:52;;;;;;;1.30;1.20;;;;;;;22.98;62.20;96417.09;10296505;28;20223;-58
2022/06/06 10:05:11;;;;;;;1.70;1.58;;;;;;;22.73;63.95;96460.22;10295080;28;20257;-60
2022/06/06 10:10:45;;;;;;;5.72;1.58;;;;;;;23.12;62.99;96452.38;10295018;28;20245;-59
2022/06/06 10:16:20;;;;;;;3.45;1.75;;;;;;;21.15;70.28;96560.56;10294784;28;20233;-58
2022/06/06 10:21:36;;;;;;;2.05;1.40;;;;;;;23.57;62.87;96444.44;10296154;28;20198;-59
2022/06/06 10:26:47;;;;;;;1.65;1.23;;;;;;;23.33;60.76;96409.91;10294277;28;20592;-55
2022/06/06 10:32:24;;;;;;;4.03;1.58;;;;;;;22.93;63.14;96464.31;10294400;28;20194;-57
2022/06/06 10:38:00;;;;;;;2.28;1.73;;;;;;;25.23;57.40;96403.13;10293660;28;20214;-59
2022/06/06 10:43:25;;;;;;;1.95;1.52;;;;;;;24.49;58.17;96391.25;10293792;28;20261;-57
2022/06/06 10:48:44;;;;;;;1.33;1.15;;;;;;;26.21;53.88;96333.84;10311024;28;20767;-59
2022/06/06 10:53:59;;;;;;;1.60;1.50;;;;;;;24.33;57.82;96376.91;10292325;28;20194;-61
2022/06/06 10:59:18;;;;;;;1.35;1.25;;;;;;;27.56;51.04;96322.72;10286530;28;20214;-61
2022/06/06 11:04:47;;;;;;;2.30;1.30;;;;;;;27.18;51.87;96327.66;10297164;28;20240;-62
2022/06/06 11:09:53;;;;;;;3.60;1.65;;;;;;;25.28;52.14;96282.50;10300682;28;20226;-62
2022/06/06 11:14:54;;;;;;;4.07;1.27;;;;;;;24.61;54.09;96311.59;10292348;28;20781;-62
2022/06/06 11:20:15;;;;;;;2.97;1.40;;;;;;;24.98;54.13;96326.03;10324008;23;20327;-62
2022/06/06 11:25:18;;;;;;;2.60;1.58;;;;;;;24.57;54.46;96327.34;10373384;28;20229;-60
2022/06/06 11:30:25;;;;;;;3.13;1.30;;;;;;;24.75;56.10;96368.22;10367265;28;20221;-59
2022/06/06 11:35:46;;;;;;;1.70;1.27;;;;;;;24.41;57.56;96387.16;10369852;28;20190;-59
2022/06/06 11:41:06;;;;;;;3.15;1.60;;;;;;;24.64;56.80;96388.75;10369855;28;20691;-60
2022/06/06 11:46:44;;;;;;;3.45;1.60;;;;;;;24.61;57.02;96375.03;10370578;28;20217;-58
2022/06/06 11:51:59;;;;;;;5.85;1.67;;;;;;;24.98;55.60;96363.53;10369081;28;20734;-62
2022/06/06 11:57:21;;;;;;;1.98;1.30;;;;;;;23.71;52.43;96237.13;10369729;28;20271;-62
2022/06/06 12:02:45;;;;;;;3.38;1.50;;;;;;;25.60;50.44;96255.56;10367513;28;20221;-60
2022/06/06 12:08:10;;;;;;;2.10;1.45;;;;;;;24.05;55.21;96325.22;10364685;28;20217;-60
2022/06/06 12:13:24;;;;;;;4.80;1.65;;;;;;;26.49;51.64;96302.97;10366855;28;20252;-62
2022/06/06 12:18:54;;;;;;;3.30;1.50;;;;;;;25.17;51.51;96262.88;10368674;28;20189;-60
2022/06/06 12:24:19;;;;;;;4.57;1.38;;;;;;;26.63;49.47;96250.31;10368240;28;20240;-59
2022/06/06 12:29:36;;;;;;;2.05;1.70;;;;;;;26.43;47.27;96175.13;10342307;28;20217;-60
2022/06/06 12:34:55;;;;;;;1.52;1.40;;;;;;;28.77;43.40;96148.94;10326374;28;20198;-57
2022/06/06 12:40:14;;;;;;;1.70;1.60;;;;;;;26.68;47.61;96191.22;10326545;28;20221;-61
2022/06/06 12:45:41;;;;;;;5.20;1.52;;;;;;;26.95;47.65;96208.06;10341772;28;20224;-61
2022/06/06 12:51:08;;;;;;;2.25;1.33;;;;;;;26.34;47.43;96170.31;10326811;28;20276;-60
2022/06/06 12:56:20;;;;;;;1.80;1.27;;;;;;;28.21;44.00;96152.19;10326448;28;20201;-61
2022/06/06 13:01:39;;;;;;;1.77;1.35;;;;;;;28.27;45.54;96186.88;10325449;28;20214;-57
2022/06/06 13:06:47;;;;;;;2.00;1.20;;;;;;;25.60;51.06;96255.56;10326225;28;20245;-58
2022/06/06 13:11:51;;;;;;;2.00;1.50;;;;;;;24.26;52.64;96261.19;10326770;28;20210;-60
2022/06/06 13:17:06;;;;;;;1.52;1.40;;;;;;;24.41;50.51;96205.09;10341519;28;20581;-60
2022/06/06 13:22:28;;;;;;;2.30;1.33;;;;;;;24.19;51.87;96232.75;10341498;28;20248;-60
2022/06/06 13:27:51;;;;;;;2.45;1.20;;;;;;;24.97;48.95;96167.09;10326010;28;20571;-61
2022/06/06 13:33:14;;;;;;;3.75;1.52;;;;;;;26.49;46.33;96145.31;10325500;28;20595;-60
2022/06/06 13:38:36;;;;;;;2.72;1.52;;;;;;;25.75;47.50;96150.16;10340921;28;20194;-62
2022/06/06 13:43:52;;;;;;;2.55;1.60;;;;;;;25.07;47.47;96123.47;10325618;28;20638;-59
2022/06/06 13:49:24;;;;;;;2.58;1.27;;;;;;;28.28;42.61;96117.63;10324539;28;20206;-59
2022/06/06 13:54:28;;;;;;;1.23;1.20;;;;;;;26.16;46.16;96126.00;10324547;28;20194;-60
2022/06/06 13:59:50;;;;;;;2.58;1.50;;;;;;;25.26;48.84;96167.47;10325599;28;20193;-59
2022/06/06 14:05:05;;;;;;;2.90;1.60;;;;;;;24.09;50.08;96167.63;10340218;28;20225;-59
2022/06/06 14:10:13;;;;;;;2.90;1.77;;;;;;;23.84;52.84;96247.44;10325448;28;20226;-62
2022/06/06 14:15:16;;;;;;;2.75;1.40;;;;;;;24.81;51.16;96216.31;10332343;28;20833;-60
2022/06/06 14:20:36;;;;;;;2.30;1.60;;;;;;;25.70;51.21;96245.94;10332534;28;20238;-59
2022/06/06 14:25:44;;;;;;;3.00;1.63;;;;;;;26.94;48.25;96209.97;10332488;28;20603;-59
2022/06/06 14:30:44;;;;;;;1.40;1.15;;;;;;;27.09;46.73;96166.09;10331262;28;20722;-59
2022/06/06 14:35:46;;;;;;;1.50;1.40;;;;;;;26.53;47.79;96177.78;10331877;28;20228;-59
2022/06/06 14:40:58;;;;;;;1.60;1.40;;;;;;;24.97;51.50;96228.75;10331909;28;20225;-59
2022/06/06 14:46:00;;;;;;;2.08;1.38;;;;;;;24.34;54.00;96268.75;10330544;28;20257;-59
2022/06/06 14:51:02;;;;;;;1.88;1.27;;;;;;;24.21;53.14;96248.56;10330392;28;20217;-59
2022/06/06 14:56:05;;;;;;;2.17;1.50;;;;;;;23.78;56.95;96307.28;10331374;28;20190;-61
2022/06/06 15:01:20;;;;;;;1.80;1.55;;;;;;;22.99;58.76;96327.09;10329722;28;21012;-61
2022/06/06 15:06:24;;;;;;;1.52;1.42;;;;;;;23.44;57.22;96294.03;10332027;28;20221;-59
2022/06/06 15:11:26;;;;;;;1.77;1.38;;;;;;;23.13;58.35;96331.06;10370826;28;20258;-59
2022/06/06 15:16:29;;;;;;;2.28;1.45;;;;;;;23.50;58.88;96341.16;10370863;28;20232;-59
2022/06/06 15:21:34;;;;;;;1.90;1.40;;;;;;;23.79;57.44;96313.44;10368373;28;20237;-58
2022/06/06 15:26:41;;;;;;;7.03;1.52;;;;;;;22.68;58.87;96321.31;10366976;28;20216;-56
2022/06/06 15:31:48;;;;;;;1.45;1.35;;;;;;;22.95;62.69;96408.78;10366059;28;20249;-58
2022/06/06 15:37:23;;;;;;;1.60;1.50;;;;;;;23.12;62.67;96396.25;10364763;28;20232;-58
2022/06/06 15:42:35;;;;;;;2.55;1.60;;;;;;;25.27;54.13;96270.19;10374131;28;20224;-59
2022/06/06 15:47:57;;;;;;;2.35;1.40;;;;;;;25.89;50.67;96190.69;10366659;28;20708;-59
2022/06/06 15:53:48;;;;;;;4.00;1.65;;;;;;;24.90;52.33;96212.09;10360213;28;20213;-58
2022/06/06 15:59:02;;;;;;;4.03;3.08;;;;;;;24.25;54.58;96289.81;10359245;28;20210;-58
2022/06/06 16:04:02;;;;;;;3.65;2.47;;;;;;;23.34;59.13;96387.47;10367267;28;20217;-57
2022/06/06 16:09:43;;;;;;;6.68;2.65;;;;;;;22.75;61.08;96425.28;10367188;28;20189;-59
2022/06/06 16:14:50;;;;;;;3.20;2.00;;;;;;;21.50;66.02;96501.22;10366782;28;20197;-55
2022/06/06 16:20:03;;;;;;;7.60;2.28;;;;;;;20.44;67.92;96503.53;10365768;28;20225;-55
2022/06/06 16:25:17;;;;;;;24.55;13.63;;;;;;;20.11;69.99;96536.69;10368181;28;20564;-56
2022/06/06 16:30:21;;;;;;;5.05;2.03;;;;;;;20.52;70.67;96553.81;10363714;28;20260;-60
2022/06/06 16:35:28;;;;;;;4.70;2.38;;;;;;;20.04;72.55;96570.50;10364659;28;20197;-59
2022/06/06 16:40:39;;;;;;;3.42;2.47;;;;;;;20.65;70.42;96523.56;10364801;28;20217;-59
2022/06/06 16:51:20;;;;;;;2.33;2.13;;;;;;;20.56;68.83;96496.41;10364697;28;20213;-58
2022/06/06 16:56:30;;;;;;;2.78;2.25;;;;;;;19.20;74.94;96568.94;10359444;28;20197;-56
2022/06/06 17:08:36;;;;;;;4.72;2.88;;;;;;;18.77;76.33;96553.63;10355454;28;20222;-56
2022/06/06 17:13:39;;;;;;;3.10;2.30;;;;;;;19.49;75.38;96544.59;10325694;28;20206;-54
2022/06/06 17:18:58;;;;;;;2.28;2.08;;;;;;;19.36;75.08;96538.34;10325593;28;20277;-54
2022/06/06 17:24:00;;;;;;;7.50;4.38;;;;;;;18.95;76.13;96544.16;10326557;28;20578;-55
2022/06/06 17:29:09;;;;;;;5.63;3.15;;;;;;;19.11;77.17;96548.97;10326793;28;20194;-58
2022/06/06 17:34:19;;;;;;;4.32;2.78;;;;;;;19.04;77.34;96541.03;10325417;28;20233;-57
2022/06/06 17:39:38;;;;;;;2.38;2.15;;;;;;;18.24;81.97;96552.03;10341844;28;20189;-57
2022/06/06 17:44:45;;;;;;;71.78;41.95;;;;;;;18.34;81.51;96538.31;10374470;28;20245;-59
2022/06/06 17:50:10;;;;;;;4.78;3.83;;;;;;;18.36;82.72;96541.56;10371274;28;20213;-57
2022/06/06 17:55:29;;;;;;;3.67;3.33;;;;;;;18.25;80.31;96521.00;10344170;28;20215;-59
2022/06/06 18:00:51;;;;;;;9.60;4.60;;;;;;;18.45;79.79;96515.59;10390032;28;20221;-55
2022/06/06 18:06:10;;;;;;;17.50;12.13;;;;;;;18.79;77.63;96489.72;10374312;28;20671;-56
2022/06/06 18:11:19;;;;;;;4.53;2.40;;;;;;;18.47;78.65;96500.31;10371564;28;20719;-54
2022/06/06 18:16:46;;;;;;;4.10;1.90;;;;;;;18.50;77.47;96492.75;10371577;28;20190;-52
2022/06/06 18:21:48;;;;;;;2.55;1.73;;;;;;;18.47;77.71;96490.50;10372597;28;20283;-58
2022/06/06 18:26:58;;;;;;;63.65;39.05;;;;;;;18.26;79.34;96510.19;10371787;28;20621;-56
2022/06/06 18:32:13;;;;;;;3.17;2.88;;;;;;;18.46;77.26;96470.31;10368610;28;20206;-56
2022/06/06 18:37:24;;;;;;;2.20;2.00;;;;;;;18.08;79.29;96502.09;10368558;28;20184;-57
2022/06/06 18:42:35;;;;;;;5.43;3.60;;;;;;;18.33;78.92;96492.41;10366984;28;20299;-59
2022/06/06 18:47:41;;;;;;;2.65;2.20;;;;;;;17.96;80.81;96512.53;10368902;28;20232;-57
2022/06/06 18:52:42;;;;;;;3.25;1.90;;;;;;;18.09;82.31;96512.50;10366673;28;20295;-57
2022/06/06 18:58:00;;;;;;;5.55;2.08;;;;;;;18.06;82.75;96512.09;10368383;28;20612;-59
2022/06/06 19:03:03;;;;;;;3.08;2.00;;;;;;;17.35;87.00;96522.38;10368649;28;20217;-59
2022/06/06 19:08:12;;;;;;;1.83;1.73;;;;;;;17.50;88.10;96513.41;10365824;28;20217;-59
2022/06/06 19:13:18;;;;;;;2.90;2.70;;;;;;;17.26;89.09;96519.13;10371403;28;20228;-56
2022/06/06 19:18:23;;;;;;;2.33;2.13;;;;;;;17.26;88.61;96520.97;10370944;28;20679;-59
2022/06/06 19:23:28;;;;;;;2.83;2.20;;;;;;;17.41;88.50;96510.13;10369837;28;20272;-59
2022/06/06 19:28:32;;;;;;;3.08;2.13;;;;;;;17.13;89.61;96524.38;10370558;28;20217;-58
2022/06/06 19:33:42;;;;;;;2.05;1.80;;;;;;;16.84;91.04;96515.78;10369627;28;20213;-56
2022/06/06 19:38:42;;;;;;;2.20;2.00;;;;;;;16.72;92.39;96514.72;10370236;28;20193;-55
2022/06/06 19:43:43;;;;;;;2.60;2.22;;;;;;;16.71;92.70;96511.28;10369992;28;20220;-59
2022/06/06 19:48:46;;;;;;;4.30;2.13;;;;;;;16.41;94.66;96519.53;10369941;28;20593;-56
2022/06/06 19:54:00;;;;;;;2.40;2.20;;;;;;;16.38;93.96;96517.28;10369386;28;20216;-58
2022/06/06 19:59:02;;;;;;;4.15;2.20;;;;;;;16.60;92.77;96519.81;10368366;28;20292;-59
2022/06/06 20:04:24;;;;;;;4.25;2.05;;;;;;;16.62;91.17;96515.13;10369021;28;20212;-59
2022/06/06 20:15:49;;;;;;;108.75;68.30;;;;;;;16.70;89.66;96514.94;10328413;28;20624;-57
2022/06/06 20:20:50;;;;;;;3.70;3.08;;;;;;;16.90;86.75;96493.81;10317306;28;20309;-58
2022/06/06 20:32:36;;;;;;;2.45;2.08;;;;;;;16.75;88.09;96485.22;10327954;28;20210;-56
2022/06/06 20:37:54;;;;;;;3.33;2.33;;;;;;;16.74;87.57;96487.06;10326265;28;20205;-55
2022/06/06 20:42:57;;;;;;;2.67;2.05;;;;;;;16.79;87.89;96486.47;10326556;28;20221;-60
2022/06/06 20:47:58;;;;;;;2.05;1.85;;;;;;;16.81;87.36;96483.63;10326196;28;20226;-60
2022/06/06 20:59:22;;;;;;;2.67;2.22;;;;;;;16.79;88.12;96477.72;10326724;28;20193;-59
2022/06/06 21:04:23;;;;;;;2.70;1.92;;;;;;;16.60;89.11;96485.44;10344146;28;20684;-60
2022/06/06 21:09:29;;;;;;;2.47;1.80;;;;;;;16.61;88.94;96483.59;10366623;28;20279;-58
2022/06/06 21:14:29;;;;;;;2.85;2.08;;;;;;;16.62;88.73;96490.50;10366104;28;20270;-59
2022/06/06 21:19:29;;;;;;;3.05;1.92;;;;;;;16.63;88.59;96482.38;10365754;28;20196;-57
2022/06/06 21:24:34;;;;;;;3.13;1.95;;;;;;;16.53;89.82;96493.31;10332040;28;20272;-56
2022/06/06 21:29:36;;;;;;;1.92;1.73;;;;;;;16.53;90.22;96481.94;10365097;28;20188;-57
2022/06/06 21:34:39;;;;;;;3.83;1.90;;;;;;;16.43;91.03;96494.72;10366145;28;20202;-59
2022/06/06 21:39:40;;;;;;;2.15;1.77;;;;;;;16.20;92.64;96488.75;10371210;28;20229;-57
2022/06/06 21:44:41;;;;;;;2.10;1.88;;;;;;;16.15;93.98;96495.63;10371446;28;20279;-56
2022/06/06 21:49:41;;;;;;;4.20;2.13;;;;;;;16.02;95.79;96497.22;10366044;28;20225;-54
2022/06/06 21:54:41;;;;;;;4.15;2.42;;;;;;;15.94;97.99;96500.03;10365577;28;20189;-55
2022/06/06 21:59:42;;;;;;;3.05;2.38;;;;;;;15.80;100.00;96506.22;10365742;28;20228;-54
2022/06/06 22:04:43;;;;;;;6.00;2.97;;;;;;;15.68;100.00;96508.56;10365150;28;20224;-56
2022/06/06 22:09:44;;;;;;;2.80;2.53;;;;;;;15.43;100.00;96513.47;10365083;28;20308;-53
2022/06/06 22:21:07;;;;;;;3.85;2.60;;;;;;;14.88;100.00;96511.41;10365700;28;20209;-55
2022/06/06 22:26:10;;;;;;;3.28;2.20;;;;;;;14.74;100.00;96518.38;10349044;28;20648;-55
2022/06/06 22:31:13;;;;;;;3.65;2.50;;;;;;;14.73;100.00;96518.56;10365236;28;20209;-54
2022/06/06 22:36:13;;;;;;;11.50;2.50;;;;;;;14.57;100.00;96517.75;10371737;28;20197;-53
2022/06/06 22:41:14;;;;;;;4.03;2.30;;;;;;;14.36;100.00;96512.44;10371761;28;20217;-52
2022/06/06 22:46:14;;;;;;;5.60;2.22;;;;;;;14.13;100.00;96518.66;10371586;28;20316;-52
2022/06/06 22:51:15;;;;;;;5.00;2.40;;;;;;;13.81;100.00;96522.50;10371382;28;20263;-56
2022/06/06 22:56:15;;;;;;;3.53;2.45;;;;;;;13.96;100.00;96515.41;10371021;28;20193;-53
2022/06/06 23:01:18;;;;;;;4.82;2.30;;;;;;;13.90;100.00;96521.41;10370377;28;20205;-54
2022/06/06 23:06:19;;;;;;;2.40;2.20;;;;;;;13.77;100.00;96510.69;10370860;28;20228;-53
2022/06/06 23:11:19;;;;;;;9.13;2.70;;;;;;;13.72;100.00;96508.59;10370609;28;20217;-54
2022/06/06 23:16:19;;;;;;;2.88;2.50;;;;;;;13.56;100.00;96509.59;10369575;28;20201;-52
2022/06/06 23:21:20;;;;;;;2.65;2.45;;;;;;;13.31;100.00;96514.25;10370395;28;20287;-58
2022/06/06 23:26:21;;;;;;;6.15;2.72;;;;;;;13.15;100.00;96509.94;10367469;28;20237;-59
2022/06/06 23:31:22;;;;;;;4.15;2.60;;;;;;;13.30;100.00;96512.63;10370042;28;20282;-53
2022/06/06 23:36:28;;;;;;;4.15;2.50;;;;;;;13.38;100.00;96513.41;10368667;28;20193;-56
2022/06/06 23:41:29;;;;;;;4.00;2.40;;;;;;;13.51;100.00;96512.75;10368691;28;20212;-54
2022/06/06 23:51:52;;;;;;;4.25;2.75;;;;;;;13.53;100.00;96497.59;10292029;28;20199;-58
